Time;durP1;ratioP1;P1;durP2;ratioP2;P2;SDS_P1;SDS_P2;PMS_P1;PMS_P2;Temp;Humidity;BMP_temperature;BMP_pressure;BME280_temperature;BME280_humidity;BME280_pressure;Samples;Min_cycle;Max_cycle;Signal;HPM_P1;HPM_P2
2021/03/28 00:00:56;;;;;;;14.15;2.45;;;7.80;99.90;;;;;;4978132;28;20035;-96
2021/03/28 00:03:46;;;;;;;7.93;1.42;;;7.80;99.90;;;;;;4961347;28;20043;-95
2021/03/28 00:06:21;;;;;;;4.60;1.23;;;7.80;99.90;;;;;;4961465;28;20030;-94
2021/03/28 00:09:07;;;;;;;11.18;1.95;;;7.70;99.90;;;;;;4962293;28;20030;-94
2021/03/28 00:11:37;;;;;;;10.82;2.40;;;7.70;99.90;;;;;;4963109;28;20026;-94
2021/03/28 00:14:04;;;;;;;10.90;2.22;;;7.70;99.90;;;;;;4962346;28;20050;-95
2021/03/28 00:16:42;;;;;;;15.57;2.55;;;7.70;99.90;;;;;;4962892;28;20533;-94
2021/03/28 00:19:20;;;;;;;11.23;1.98;;;7.70;99.90;;;;;;4962624;28;20038;-95
2021/03/28 00:21:54;;;;;;;11.93;1.50;;;7.70;99.90;;;;;;4962917;28;20074;-95
2021/03/28 00:24:26;;;;;;;18.33;2.67;;;7.70;99.90;;;;;;4963609;28;20031;-94
2021/03/28 00:27:19;;;;;;;10.55;2.47;;;7.70;99.90;;;;;;4963144;28;20031;-96
2021/03/28 00:30:20;;;;;;;9.32;2.00;;;7.70;99.90;;;;;;4962695;28;20051;-96
2021/03/28 00:33:02;;;;;;;9.00;1.42;;;7.80;99.90;;;;;;4963514;28;20027;-95
2021/03/28 00:35:49;;;;;;;7.47;1.55;;;7.70;99.90;;;;;;4975743;28;20125;-94
2021/03/28 00:38:31;;;;;;;9.63;1.67;;;7.80;99.90;;;;;;4978942;28;20035;-95
2021/03/28 00:41:25;;;;;;;6.97;2.08;;;7.80;99.90;;;;;;5000676;28;20030;-95
2021/03/28 00:44:15;;;;;;;9.43;1.95;;;7.80;99.90;;;;;;4984487;28;20023;-93
2021/03/28 00:47:04;;;;;;;10.55;2.47;;;7.80;99.90;;;;;;4970936;28;20027;-94
2021/03/28 00:49:42;;;;;;;12.88;2.45;;;7.80;99.90;;;;;;4972176;28;20031;-94
2021/03/28 00:52:17;;;;;;;8.55;2.75;;;7.80;99.90;;;;;;4972470;28;20031;-95
2021/03/28 00:54:48;;;;;;;12.05;1.45;;;7.80;99.90;;;;;;4985866;28;20018;-93
2021/03/28 00:57:31;;;;;;;13.45;1.70;;;7.90;99.90;;;;;;4970853;28;20022;-96
2021/03/28 01:00:38;;;;;;;10.98;1.83;;;7.90;99.90;;;;;;4985148;28;20026;-95
2021/03/28 01:03:10;;;;;;;15.27;2.38;;;7.90;99.90;;;;;;4974318;28;20027;-95
2021/03/28 01:05:44;;;;;;;12.95;1.73;;;7.90;99.90;;;;;;4982353;28;20031;-93
2021/03/28 01:08:43;;;;;;;8.05;2.00;;;7.90;99.90;;;;;;4966162;28;20117;-93
2021/03/28 01:11:31;;;;;;;11.93;1.75;;;7.90;99.90;;;;;;4961621;28;20034;-94
2021/03/28 01:14:02;;;;;;;7.63;1.40;;;8.00;99.90;;;;;;4984098;28;20034;-94
2021/03/28 01:16:47;;;;;;;13.20;1.70;;;8.00;99.90;;;;;;4984161;28;20030;-94
2021/03/28 01:19:33;;;;;;;8.23;1.67;;;8.00;99.90;;;;;;4983573;28;20113;-94
2021/03/28 01:22:11;;;;;;;6.93;1.45;;;8.00;99.90;;;;;;5004409;28;20333;-94
2021/03/28 01:24:52;;;;;;;12.38;2.25;;;8.00;99.90;;;;;;5005045;28;20053;-95
2021/03/28 01:27:27;;;;;;;8.43;1.48;;;8.00;99.90;;;;;;5014262;28;20053;-94
2021/03/28 01:30:18;;;;;;;19.15;2.05;;;8.00;99.90;;;;;;4997222;28;20054;-95
2021/03/28 01:33:17;;;;;;;8.75;1.95;;;8.00;99.90;;;;;;5014153;28;20119;-94
2021/03/28 01:36:04;;;;;;;12.38;2.35;;;7.90;99.90;;;;;;4988012;28;20142;-95
2021/03/28 01:38:41;;;;;;;6.57;1.35;;;7.90;99.90;;;;;;4965108;28;20385;-94
2021/03/28 01:41:07;;;;;;;9.55;1.98;;;7.90;99.90;;;;;;4967400;28;20045;-95
2021/03/28 01:44:06;;;;;;;9.45;1.70;;;7.80;99.90;;;;;;4980485;28;20038;-94
2021/03/28 01:46:49;;;;;;;12.07;2.03;;;7.80;99.90;;;;;;4985627;28;20026;-94
2021/03/28 01:49:18;;;;;;;17.15;1.95;;;7.80;99.90;;;;;;4982284;28;20034;-94
2021/03/28 01:52:07;;;;;;;9.77;1.75;;;7.80;99.90;;;;;;5001362;28;20034;-95
2021/03/28 01:55:00;;;;;;;5.43;1.20;;;7.80;99.90;;;;;;4983936;28;20478;-95
2021/03/28 01:57:47;;;;;;;9.38;2.30;;;7.80;99.90;;;;;;4986649;28;20030;-94
2021/03/28 02:00:28;;;;;;;10.80;1.90;;;7.80;99.90;;;;;;5006376;28;20106;-93
2021/03/28 02:03:40;;;;;;;7.10;1.88;;;7.80;99.90;;;;;;5002793;28;20084;-94
2021/03/28 02:06:05;;;;;;;5.63;1.90;;;7.80;99.90;;;;;;4985787;28;20030;-95
2021/03/28 02:08:58;;;;;;;5.85;2.03;;;7.80;99.90;;;;;;4987956;28;20499;-93
2021/03/28 02:12:03;;;;;;;5.78;1.10;;;7.80;99.90;;;;;;4986935;28;20018;-95
2021/03/28 02:14:44;;;;;;;4.55;1.15;;;7.80;99.90;;;;;;4936206;28;20144;-92
2021/03/28 02:17:23;;;;;;;11.45;2.22;;;7.80;99.90;;;;;;4999810;28;20022;-93
2021/03/28 02:20:31;;;;;;;10.98;1.73;;;7.80;99.90;;;;;;4979395;28;20550;-95
2021/03/28 02:23:36;;;;;;;8.93;1.92;;;7.80;99.90;;;;;;4979881;28;20053;-95
2021/03/28 02:26:22;;;;;;;8.25;1.50;;;7.70;99.90;;;;;;4980851;28;20053;-94
2021/03/28 02:29:20;;;;;;;9.68;1.38;;;7.80;99.90;;;;;;4980042;28;20125;-94
2021/03/28 02:32:29;;;;;;;6.85;1.88;;;7.80;99.90;;;;;;4981143;28;20061;-94
2021/03/28 02:35:15;;;;;;;7.65;2.08;;;7.70;99.90;;;;;;4885109;29;20036;-93
2021/03/28 02:38:05;;;;;;;3.30;1.60;;;7.70;99.90;;;;;;4885359;29;20121;-94
2021/03/28 02:40:34;;;;;;;2.43;1.33;;;7.70;99.90;;;;;;4884580;29;20036;-95
2021/03/28 02:43:44;;;;;;;3.92;1.25;;;7.70;99.90;;;;;;4886310;29;20041;-95
2021/03/28 02:46:37;;;;;;;4.38;1.60;;;7.80;99.90;;;;;;4884123;29;20044;-95
2021/03/28 02:49:46;;;;;;;7.25;1.90;;;7.80;99.90;;;;;;4903422;29;20044;-95
2021/03/28 02:53:01;;;;;;;6.10;1.33;;;7.80;99.90;;;;;;4904996;29;20036;-95
2021/03/28 02:58:10;;;;;;;4.78;0.70;;;7.80;99.90;;;;;;5035451;23;20043;-94
2021/03/28 03:06:15;;;;;;;4.03;1.05;;;7.80;99.90;;;;;;4949521;28;20059;-94
2021/03/28 03:09:06;;;;;;;3.53;1.35;;;7.80;99.90;;;;;;4934438;29;20339;-93
2021/03/28 03:11:43;;;;;;;1.58;1.08;;;7.80;99.90;;;;;;4932101;29;20023;-95
2021/03/28 03:14:30;;;;;;;2.15;0.95;;;7.80;99.90;;;;;;4937146;29;20035;-95
2021/03/28 03:17:18;;;;;;;8.40;1.38;;;7.70;99.90;;;;;;4940471;29;20035;-94
2021/03/28 03:22:50;;;;;;;2.53;0.60;;;7.70;99.90;;;;;;5072065;23;20046;-95
2021/03/28 03:53:43;;;;;;;3.13;1.20;;;7.80;99.90;;;;;;2302476;23;20402;-91
2021/03/28 03:56:21;;;;;;;3.78;0.98;;;7.80;99.90;;;;;;4885551;29;20045;-96
2021/03/28 04:24:19;;;;;;;0.57;0.57;;;7.90;99.90;;;;;;4953243;29;20031;-96
2021/03/28 04:37:22;;;;;;;2.97;0.82;;;7.90;99.90;;;;;;4990640;23;20082;-96
2021/03/28 04:40:06;;;;;;;1.30;0.50;;;8.00;99.90;;;;;;4962965;28;20070;-94
2021/03/28 04:42:55;;;;;;;3.03;0.80;;;8.00;99.90;;;;;;4960209;28;20114;-94
2021/03/28 04:48:40;;;;;;;;;;;7.90;99.90;;;;;;5057166;23;20039;-96
2021/03/28 04:51:31;;;;;;;2.25;0.77;;;8.00;99.90;;;;;;4957735;28;19901;-95
2021/03/28 04:54:34;;;;;;;2.10;0.50;;;8.00;99.90;;;;;;4972329;28;20027;-94
2021/03/28 04:57:26;;;;;;;2.72;0.70;;;8.00;99.90;;;;;;4952272;28;20429;-96
2021/03/28 05:03:15;;;;;;;3.22;0.88;;;8.00;99.90;;;;;;5018188;23;20087;-95
2021/03/28 05:06:13;;;;;;;4.43;0.95;;;8.00;99.90;;;;;;4947924;29;20034;-96
2021/03/28 05:08:58;;;;;;;1.50;0.40;;;8.00;99.90;;;;;;4952013;29;20031;-95
2021/03/28 05:12:06;;;;;;;1.92;0.80;;;8.10;99.90;;;;;;4954803;29;20037;-95
2021/03/28 05:15:10;;;;;;;1.17;0.70;;;8.10;99.90;;;;;;4951494;28;20047;-94
2021/03/28 05:17:54;;;;;;;3.25;0.68;;;8.10;99.90;;;;;;4958272;29;20038;-95
2021/03/28 05:26:06;;;;;;;;;;;;;;;;;;;;;
2021/03/28 05:28:43;;;;;;;1.10;0.50;;;8.10;99.90;;;;;;5030947;23;20036;-96
2021/03/28 05:31:50;;;;;;;1.05;0.50;;;8.20;99.90;;;;;;4976565;28;20043;-96
2021/03/28 05:34:19;;;;;;;0.77;0.50;;;8.20;99.90;;;;;;4895320;29;20021;-96
2021/03/28 05:36:50;;;;;;;1.45;0.73;;;8.20;99.90;;;;;;4983082;23;20063;-95
2021/03/28 05:39:35;;;;;;;1.75;0.55;;;8.20;99.90;;;;;;4930422;29;20074;-94
2021/03/28 05:42:17;;;;;;;0.60;0.30;;;8.20;99.90;;;;;;4932457;29;20028;-96
2021/03/28 05:45:18;;;;;;;0.70;0.50;;;8.30;99.90;;;;;;4953940;29;20043;-94
2021/03/28 05:48:22;;;;;;;2.38;0.45;;;8.30;99.90;;;;;;4950830;28;20035;-95
2021/03/28 05:53:48;;;;;;;2.47;0.40;;;8.40;99.90;;;;;;5296908;23;20059;-95
2021/03/28 05:56:42;;;;;;;0.13;0.13;;;8.40;99.90;;;;;;4958617;28;20035;-94
2021/03/28 05:59:22;;;;;;;1.02;0.60;;;8.40;99.90;;;;;;4975644;28;20015;-94
2021/03/28 06:02:22;;;;;;;0.52;0.40;;;8.50;99.90;;;;;;4955768;28;20055;-94
2021/03/28 06:05:26;;;;;;;1.52;0.47;;;8.40;99.90;;;;;;4977821;28;20031;-94
2021/03/28 06:08:16;;;;;;;0.40;0.40;;;8.40;99.90;;;;;;4957862;28;20031;-95
2021/03/28 06:11:22;;;;;;;1.13;0.60;;;8.50;99.90;;;;;;4954629;29;20134;-96
2021/03/28 06:14:24;;;;;;;0.98;0.60;;;8.50;99.90;;;;;;4950408;29;20011;-96
2021/03/28 06:28:47;;;;;;;1.42;0.52;;;8.60;99.90;;;;;;4994624;28;20054;-95
2021/03/28 06:31:13;;;;;;;0.85;0.50;;;8.60;99.90;;;;;;5156307;23;20059;-95
2021/03/28 06:47:17;;;;;;;2.17;0.50;;;8.80;99.90;;;;;;5124848;23;20108;-95
2021/03/28 06:52:56;;;;;;;2.10;0.50;;;8.90;99.90;;;;;;4977687;23;20176;-96
2021/03/28 06:55:46;;;;;;;2.28;0.70;;;8.90;99.90;;;;;;5125362;23;20070;-96
2021/03/28 06:58:39;;;;;;;1.75;0.68;;;9.00;99.90;;;;;;4959400;29;20015;-96
2021/03/28 07:01:27;;;;;;;1.40;0.60;;;9.00;99.90;;;;;;4956129;29;20082;-95
2021/03/28 07:04:14;;;;;;;1.50;0.88;;;9.00;99.90;;;;;;4975679;29;20042;-96
2021/03/28 07:07:02;;;;;;;0.93;0.65;;;9.10;99.90;;;;;;4970490;28;20039;-96
2021/03/28 07:10:01;;;;;;;1.08;0.98;;;9.10;99.90;;;;;;4958399;29;20031;-96
2021/03/28 07:12:52;;;;;;;3.47;0.93;;;9.20;99.90;;;;;;4973230;29;20050;-95
2021/03/28 07:15:23;;;;;;;;;;;9.20;99.90;;;;;;4963864;29;20023;-95
2021/03/28 07:18:27;;;;;;;3.13;0.80;;;9.20;99.90;;;;;;4951846;29;19906;-95
2021/03/28 07:21:22;;;;;;;3.33;1.15;;;9.30;99.90;;;;;;4945167;29;20086;-96
2021/03/28 07:24:09;;;;;;;8.25;0.85;;;9.40;99.90;;;;;;4946487;29;20042;-94
2021/03/28 07:26:38;;;;;;;3.70;1.67;;;9.50;99.90;;;;;;4971896;28;20046;-95
2021/03/28 07:29:41;;;;;;;6.53;1.33;;;9.50;99.90;;;;;;4957576;29;20035;-95
2021/03/28 07:32:29;;;;;;;5.28;1.27;;;9.50;99.90;;;;;;4975507;29;20051;-94
2021/03/28 07:35:27;;;;;;;4.47;0.93;;;9.60;99.90;;;;;;4950346;29;20043;-95
2021/03/28 07:38:21;;;;;;;6.85;1.10;;;9.60;99.90;;;;;;4953462;29;20038;-96
2021/03/28 07:41:16;;;;;;;8.88;1.33;;;9.70;99.90;;;;;;4947621;29;20121;-96
2021/03/28 07:44:18;;;;;;;7.30;1.02;;;9.70;99.90;;;;;;4872425;29;20057;-96
2021/03/28 07:47:24;;;;;;;9.52;1.42;;;9.80;99.90;;;;;;4857296;29;20057;-96
2021/03/28 07:50:17;;;;;;;2.47;0.82;;;9.80;99.90;;;;;;4872646;29;20066;-95
2021/03/28 07:52:51;;;;;;;5.47;1.02;;;9.90;99.90;;;;;;4881449;29;20502;-94
2021/03/28 07:55:17;;;;;;;4.53;1.23;;;9.90;99.90;;;;;;4865327;29;20033;-95
2021/03/28 07:58:14;;;;;;;4.78;1.00;;;10.00;99.90;;;;;;4860396;29;20031;-95
2021/03/28 08:01:10;;;;;;;3.42;0.90;;;10.00;99.90;;;;;;4853699;29;20079;-95
2021/03/28 08:04:02;;;;;;;4.97;1.00;;;10.00;99.90;;;;;;4875676;29;20048;-95
2021/03/28 08:06:57;;;;;;;4.15;1.15;;;10.00;99.90;;;;;;4858895;29;20063;-95
2021/03/28 08:09:55;;;;;;;5.45;0.98;;;10.10;99.90;;;;;;4861269;29;20055;-95
2021/03/28 08:12:45;;;;;;;2.53;0.68;;;10.10;99.90;;;;;;4857129;29;20009;-96
2021/03/28 08:15:48;;;;;;;5.80;1.42;;;10.10;99.90;;;;;;4867261;29;20025;-96
2021/03/28 08:18:25;;;;;;;6.30;0.88;;;10.10;99.90;;;;;;4882872;29;20539;-96
2021/03/28 08:21:15;;;;;;;1.65;0.65;;;10.20;99.90;;;;;;4919750;29;20121;-95
2021/03/28 08:24:08;;;;;;;1.77;0.55;;;10.20;99.90;;;;;;4957206;29;20039;-94
2021/03/28 08:27:01;;;;;;;2.75;1.02;;;10.20;99.90;;;;;;4978729;29;20015;-95
2021/03/28 08:29:32;;;;;;;1.92;0.73;;;10.20;99.90;;;;;;4956971;29;20019;-96
2021/03/28 08:32:24;;;;;;;2.83;1.30;;;10.20;99.90;;;;;;4982604;28;20035;-96
2021/03/28 08:35:15;;;;;;;3.38;0.80;;;10.20;99.90;;;;;;5243003;23;20051;-93
2021/03/28 08:38:18;;;;;;;3.60;0.75;;;10.20;99.90;;;;;;4987461;28;20030;-95
2021/03/28 08:41:21;;;;;;;2.13;1.00;;;10.20;99.90;;;;;;4988390;28;20030;-94
2021/03/28 08:44:18;;;;;;;3.35;0.85;;;10.20;99.90;;;;;;4983407;28;20065;-94
2021/03/28 08:47:27;;;;;;;3.55;1.13;;;10.20;99.90;;;;;;4982781;28;20023;-93
2021/03/28 08:50:02;;;;;;;3.80;1.10;;;10.30;99.90;;;;;;4986879;28;20034;-95
2021/03/28 08:53:01;;;;;;;3.58;1.00;;;10.30;99.90;;;;;;4984972;28;20004;-93
2021/03/28 08:56:04;;;;;;;2.05;0.77;;;10.30;99.90;;;;;;4990678;28;20033;-95
2021/03/28 08:58:41;;;;;;;2.97;1.20;;;10.30;99.90;;;;;;4994189;28;20082;-95
2021/03/28 09:01:19;;;;;;;3.30;0.65;;;10.40;99.90;;;;;;4991544;28;20027;-95
2021/03/28 09:04:19;;;;;;;8.52;1.23;;;10.40;99.90;;;;;;4975291;28;20035;-95
2021/03/28 09:07:02;;;;;;;5.03;1.13;;;10.40;99.90;;;;;;4992471;28;20054;-94
2021/03/28 09:09:59;;;;;;;1.73;0.90;;;10.40;99.90;;;;;;4986811;28;20035;-95
2021/03/28 09:12:49;;;;;;;2.35;0.60;;;10.50;99.90;;;;;;4998617;28;20507;-94
2021/03/28 09:15:30;;;;;;;6.30;1.20;;;10.50;99.90;;;;;;4990583;28;20077;-95
2021/03/28 09:18:24;;;;;;;3.20;1.00;;;10.50;99.90;;;;;;4973180;28;20034;-95
2021/03/28 09:21:20;;;;;;;2.95;0.80;;;10.50;99.90;;;;;;4982838;28;20058;-95
2021/03/28 09:24:10;;;;;;;3.90;0.75;;;10.60;99.90;;;;;;4985504;28;20062;-96
2021/03/28 09:27:12;;;;;;;1.85;0.70;;;10.60;99.90;;;;;;4983523;28;20103;-93
2021/03/28 09:29:59;;;;;;;5.38;0.93;;;10.60;99.90;;;;;;4977140;28;20030;-95
2021/03/28 09:32:57;;;;;;;4.45;0.90;;;10.70;99.90;;;;;;4980216;28;20118;-94
2021/03/28 09:35:35;;;;;;;2.45;0.70;;;10.70;99.90;;;;;;4986400;28;20047;-95
2021/03/28 09:41:29;;;;;;;3.90;0.98;;;10.70;99.90;;;;;;5004553;28;20038;-95
2021/03/28 09:44:18;;;;;;;2.50;0.68;;;10.80;99.90;;;;;;5008578;28;20045;-94
2021/03/28 09:47:35;;;;;;;8.30;1.15;;;10.80;99.90;;;;;;4986007;28;20049;-94
2021/03/28 09:50:25;;;;;;;4.38;0.80;;;10.80;99.90;;;;;;4957101;28;20038;-94
2021/03/28 09:53:17;;;;;;;1.00;0.30;;;10.80;99.90;;;;;;4975171;28;20101;-94
2021/03/28 09:55:58;;;;;;;5.30;1.60;;;10.90;99.90;;;;;;4982431;28;20114;-95
2021/03/28 09:58:39;;;;;;;;;;;10.90;99.90;;;;;;4993395;28;20183;-95
2021/03/28 10:01:17;;;;;;;4.85;1.55;;;10.90;99.90;;;;;;4972628;28;19921;-95
2021/03/28 10:03:57;;;;;;;5.63;1.42;;;10.90;99.90;;;;;;4996231;28;20045;-94
2021/03/28 10:06:25;;;;;;;2.65;0.90;;;10.90;99.90;;;;;;4970219;28;20088;-94
2021/03/28 10:09:12;;;;;;;6.35;0.82;;;10.90;99.90;;;;;;4987965;28;20035;-93
2021/03/28 10:11:49;;;;;;;2.67;0.95;;;11.00;99.90;;;;;;4976346;28;20028;-93
2021/03/28 10:14:45;;;;;;;3.80;1.13;;;11.00;99.90;;;;;;4987875;28;20037;-94
2021/03/28 10:17:46;;;;;;;2.10;1.05;;;11.00;99.90;;;;;;4968622;28;20057;-93
2021/03/28 10:20:51;;;;;;;4.70;1.02;;;11.10;99.90;;;;;;4987238;28;20160;-93
2021/03/28 10:23:49;;;;;;;1.83;0.80;;;11.10;99.90;;;;;;4944300;28;20046;-95
2021/03/28 10:26:32;;;;;;;3.45;1.05;;;11.30;99.90;;;;;;4903399;29;20172;-92
2021/03/28 10:29:28;;;;;;;3.85;0.77;;;11.40;99.90;;;;;;4905801;29;20040;-93
2021/03/28 10:32:39;;;;;;;6.55;1.00;;;11.50;99.90;;;;;;4915591;29;20136;-95
2021/03/28 10:35:25;;;;;;;4.63;1.20;;;11.80;99.90;;;;;;4892998;29;20052;-93
2021/03/28 10:38:22;;;;;;;4.57;0.80;;;12.10;99.90;;;;;;4915773;29;20028;-95
2021/03/28 10:40:53;;;;;;;2.47;0.80;;;12.40;99.90;;;;;;4907822;29;20032;-94
2021/03/28 10:43:42;;;;;;;6.78;1.58;;;12.60;99.90;;;;;;4903046;29;20032;-94
2021/03/28 10:46:37;;;;;;;3.03;0.95;;;12.70;99.90;;;;;;4904809;29;20029;-93
2021/03/28 10:49:17;;;;;;;5.18;1.13;;;12.80;99.90;;;;;;4905861;29;20032;-94
2021/03/28 10:52:29;;;;;;;2.40;0.80;;;12.80;99.90;;;;;;4912068;29;20035;-94
2021/03/28 10:55:29;;;;;;;4.47;1.33;;;12.70;99.90;;;;;;4897609;29;20598;-93
2021/03/28 10:58:13;;;;;;;4.75;1.13;;;12.60;99.90;;;;;;4886936;29;20077;-93
2021/03/28 11:01:12;;;;;;;2.67;0.82;;;12.50;99.90;;;;;;4902371;29;20028;-93
2021/03/28 11:04:08;;;;;;;2.80;0.80;;;12.40;99.90;;;;;;4984154;28;20031;-94
2021/03/28 11:06:55;;;;;;;5.18;2.03;;;12.40;99.90;;;;;;4980187;28;20034;-95
2021/03/28 11:09:43;;;;;;;6.90;1.50;;;12.40;99.90;;;;;;4987124;28;20022;-95
2021/03/28 11:12:17;;;;;;;7.32;1.20;;;12.40;99.90;;;;;;4975370;28;20045;-95
2021/03/28 11:15:15;;;;;;;3.00;0.98;;;12.40;99.90;;;;;;4974199;28;20027;-95
2021/03/28 11:18:02;;;;;;;6.82;1.55;;;12.50;99.90;;;;;;4965967;28;20045;-94
2021/03/28 11:20:51;;;;;;;6.32;1.83;;;12.50;99.90;;;;;;4997948;28;20010;-93
2021/03/28 11:23:40;;;;;;;5.70;1.35;;;12.50;99.90;;;;;;4971998;28;20495;-93
2021/03/28 11:26:33;;;;;;;4.75;1.20;;;12.60;99.90;;;;;;4971999;28;20090;-93
2021/03/28 11:29:08;;;;;;;8.43;1.80;;;12.60;99.90;;;;;;4963627;28;20097;-92
2021/03/28 11:32:04;;;;;;;9.38;1.70;;;12.70;99.90;;;;;;4988579;28;21017;-91
2021/03/28 11:34:42;;;;;;;8.48;2.20;;;12.70;99.90;;;;;;4969475;28;20046;-93
2021/03/28 11:37:27;;;;;;;3.38;1.55;;;12.80;99.90;;;;;;4967791;28;20082;-94
2021/03/28 11:40:15;;;;;;;2.35;1.30;;;12.90;99.90;;;;;;4986991;28;20026;-94
2021/03/28 11:42:44;;;;;;;4.82;1.40;;;13.20;99.90;;;;;;4964603;28;20030;-94
2021/03/28 11:45:28;;;;;;;8.57;1.63;;;13.30;99.90;;;;;;4966724;28;20039;-94
2021/03/28 11:47:55;;;;;;;9.85;1.52;;;13.70;99.90;;;;;;4969954;28;20095;-95
2021/03/28 11:50:23;;;;;;;5.57;1.00;;;14.10;99.90;;;;;;4965060;28;20503;-95
2021/03/28 11:52:58;;;;;;;4.85;1.30;;;14.40;99.90;;;;;;4970130;28;20033;-93
2021/03/28 11:55:45;;;;;;;4.57;1.20;;;14.50;99.90;;;;;;4970206;28;20082;-94
2021/03/28 11:58:23;;;;;;;6.35;1.40;;;14.80;99.90;;;;;;4970326;28;20023;-94
2021/03/28 12:00:57;;;;;;;8.02;1.80;;;14.90;99.90;;;;;;4970051;28;20321;-94
2021/03/28 12:03:32;;;;;;;6.63;1.40;;;15.20;99.90;;;;;;4990187;28;20545;-94
2021/03/28 12:06:07;;;;;;;7.22;1.83;;;15.40;99.90;;;;;;4985684;28;20050;-95
2021/03/28 12:08:56;;;;;;;4.35;1.23;;;15.70;99.90;;;;;;4980611;28;20022;-93
2021/03/28 12:11:41;;;;;;;6.43;1.20;;;15.90;99.90;;;;;;4966702;28;20027;-94
2021/03/28 12:14:13;;;;;;;3.97;1.27;;;16.10;99.50;;;;;;4976941;28;20026;-94
2021/03/28 12:17:09;;;;;;;5.97;1.88;;;16.20;98.30;;;;;;4975419;28;20026;-93
2021/03/28 12:19:45;;;;;;;3.00;1.33;;;16.40;98.00;;;;;;4977397;28;20038;-94
2021/03/28 12:22:26;;;;;;;2.95;0.98;;;16.50;96.90;;;;;;4975532;28;20049;-95
2021/03/28 12:25:27;;;;;;;4.75;1.25;;;16.50;95.90;;;;;;4982172;28;20120;-94
2021/03/28 12:27:56;;;;;;;6.30;1.50;;;16.30;95.70;;;;;;4978484;28;20037;-94
2021/03/28 12:30:36;;;;;;;3.03;1.05;;;16.20;96.00;;;;;;4966340;28;20023;-95
2021/03/28 12:33:07;;;;;;;5.07;2.67;;;16.00;96.10;;;;;;4979218;28;20028;-94
2021/03/28 12:35:56;;;;;;;5.40;0.95;;;15.90;96.60;;;;;;4943354;28;766503;-94
2021/03/28 12:38:28;;;;;;;6.65;1.58;;;15.80;97.00;;;;;;4966281;28;20037;-95
2021/03/28 12:41:12;;;;;;;5.78;1.27;;;15.70;96.90;;;;;;4963630;28;20026;-96
2021/03/28 12:44:05;;;;;;;4.80;1.63;;;15.50;97.30;;;;;;4980972;28;20065;-94
2021/03/28 12:46:30;;;;;;;4.60;1.10;;;15.50;97.60;;;;;;4962723;28;20059;-93
2021/03/28 12:49:08;;;;;;;3.50;0.98;;;15.60;97.80;;;;;;4971233;28;20014;-95
2021/03/28 12:51:44;;;;;;;2.35;0.80;;;15.80;97.90;;;;;;4977005;28;20058;-94
2021/03/28 12:54:22;;;;;;;6.05;1.30;;;15.80;97.20;;;;;;4979943;28;20026;-94
2021/03/28 12:56:49;;;;;;;1.05;0.68;;;16.00;97.20;;;;;;4974376;28;20033;-94
2021/03/28 12:59:35;;;;;;;4.18;0.77;;;16.20;97.20;;;;;;4983576;28;20030;-94
2021/03/28 13:02:37;;;;;;;2.92;0.82;;;16.40;95.60;;;;;;4981602;28;20045;-94
2021/03/28 13:05:25;;;;;;;2.50;0.88;;;16.40;94.90;;;;;;4980835;28;20500;-94
2021/03/28 13:07:58;;;;;;;1.65;0.80;;;16.30;94.20;;;;;;4981040;28;20066;-94
2021/03/28 13:10:43;;;;;;;2.05;0.65;;;16.20;94.40;;;;;;4966412;28;20026;-94
2021/03/28 13:13:24;;;;;;;0.90;0.35;;;15.90;94.50;;;;;;4973561;28;20031;-95
2021/03/28 13:15:59;;;;;;;1.55;0.60;;;15.80;94.60;;;;;;4978138;28;20066;-96
2021/03/28 13:18:53;;;;;;;1.63;0.65;;;15.60;95.20;;;;;;4975102;28;20038;-96
2021/03/28 13:21:22;;;;;;;1.40;0.40;;;15.60;95.90;;;;;;4962453;28;20035;-95
2021/03/28 13:23:48;;;;;;;1.10;0.50;;;15.50;95.90;;;;;;4978647;28;20041;-94
2021/03/28 13:26:24;;;;;;;1.02;0.50;;;15.30;96.10;;;;;;4976011;28;20027;-95
2021/03/28 13:29:03;;;;;;;1.42;0.38;;;15.20;96.50;;;;;;4980494;28;20500;-96
2021/03/28 13:31:39;;;;;;;2.60;0.55;;;14.90;96.70;;;;;;4983700;28;20110;-95
2021/03/28 13:34:29;;;;;;;1.77;0.55;;;14.70;97.10;;;;;;4989742;28;20027;-96
2021/03/28 13:37:03;;;;;;;0.63;0.40;;;14.50;97.70;;;;;;4987528;28;20058;-96
2021/03/28 13:39:41;;;;;;;0.28;0.20;;;14.40;98.30;;;;;;5312001;23;20052;-96
2021/03/28 13:42:22;;;;;;;0.10;0.10;;;14.40;98.00;;;;;;4904622;29;20039;-94
2021/03/28 13:45:03;;;;;;;1.30;0.30;;;14.40;98.50;;;;;;4905092;29;20032;-95
2021/03/28 13:47:44;;;;;;;1.10;0.28;;;14.50;98.70;;;;;;4922441;29;20394;-94
2021/03/28 13:50:33;;;;;;;0.25;0.20;;;14.50;98.70;;;;;;4915260;29;20032;-94
2021/03/28 13:53:06;;;;;;;0.30;0.30;;;14.60;98.80;;;;;;4917572;29;20032;-92
2021/03/28 13:55:51;;;;;;;3.05;0.32;;;14.50;98.50;;;;;;4919197;29;20049;-94
2021/03/28 13:58:24;;;;;;;0.75;0.40;;;14.60;98.70;;;;;;4917708;29;20029;-94
2021/03/28 14:01:14;;;;;;;1.08;0.50;;;14.70;98.50;;;;;;4919595;29;20035;-93
2021/03/28 14:03:42;;;;;;;0.85;0.73;;;14.80;98.20;;;;;;4901753;29;20139;-96
2021/03/28 14:06:23;;;;;;;0.75;0.40;;;14.80;98.10;;;;;;4920437;29;20028;-94
2021/03/28 14:09:09;;;;;;;0.55;0.30;;;14.80;97.80;;;;;;4920763;29;20035;-96
2021/03/28 14:11:46;;;;;;;0.77;0.40;;;14.80;97.90;;;;;;4914555;29;20028;-93
2021/03/28 14:14:31;;;;;;;0.40;0.40;;;14.80;98.00;;;;;;4915258;29;20052;-96
2021/03/28 14:17:00;;;;;;;3.50;0.95;;;14.70;97.90;;;;;;4921990;29;20111;-95
2021/03/28 14:19:33;;;;;;;0.35;0.30;;;14.60;97.90;;;;;;4918167;29;20138;-96
2021/03/28 14:22:48;;;;;;;1.23;0.52;;;14.60;98.30;;;;;;4917741;29;20088;-95
2021/03/28 14:25:35;;;;;;;0.85;0.50;;;14.60;98.20;;;;;;4918340;29;20048;-95
2021/03/28 14:28:35;;;;;;;0.82;0.40;;;14.60;98.50;;;;;;4919533;29;20115;-95
2021/03/28 14:31:24;;;;;;;0.85;0.40;;;14.60;98.50;;;;;;4921358;29;20043;-94
2021/03/28 14:34:23;;;;;;;0.63;0.30;;;14.70;98.00;;;;;;4920105;29;20055;-93
2021/03/28 14:37:27;;;;;;;0.52;0.30;;;14.80;97.50;;;;;;4928159;29;20479;-95
2021/03/28 14:40:32;;;;;;;0.80;0.32;;;14.70;96.80;;;;;;4930613;29;20067;-94
2021/03/28 14:43:16;;;;;;;3.28;0.60;;;14.60;97.20;;;;;;4941508;29;20051;-94
2021/03/28 14:46:04;;;;;;;0.80;0.50;;;14.60;97.60;;;;;;4935737;29;20027;-95
2021/03/28 14:48:36;;;;;;;1.52;0.60;;;14.40;98.00;;;;;;4931998;29;20031;-96
2021/03/28 14:51:24;;;;;;;0.80;0.50;;;14.30;98.40;;;;;;4928416;29;20458;-96
2021/03/28 14:54:23;;;;;;;1.60;0.50;;;14.30;98.70;;;;;;4910667;29;20445;-96
2021/03/28 14:57:10;;;;;;;0.55;0.30;;;14.20;99.10;;;;;;4943537;29;20490;-96
2021/03/28 15:00:00;;;;;;;2.47;1.15;;;14.10;99.40;;;;;;4945762;29;20091;-94
2021/03/28 15:02:53;;;;;;;0.70;0.30;;;14.10;99.70;;;;;;4945652;29;20099;-96
2021/03/28 15:05:54;;;;;;;1.13;0.30;;;14.00;99.90;;;;;;4939623;29;20102;-96
2021/03/28 15:08:27;;;;;;;0.55;0.20;;;14.00;99.90;;;;;;4918849;29;20035;-94
2021/03/28 15:11:17;;;;;;;2.00;0.47;;;14.00;99.90;;;;;;4926136;29;20122;-95
2021/03/28 15:13:55;;;;;;;0.22;0.22;;;14.10;99.90;;;;;;4930104;29;20028;-95
2021/03/28 15:16:44;;;;;;;0.30;0.30;;;14.00;99.80;;;;;;4907486;29;20059;-95
2021/03/28 15:19:31;;;;;;;0.20;0.20;;;14.00;99.90;;;;;;4919698;29;20034;-96
2021/03/28 15:22:15;;;;;;;0.90;0.28;;;13.90;99.90;;;;;;4940257;29;20038;-95
2021/03/28 15:25:07;;;;;;;0.95;0.30;;;13.90;99.90;;;;;;4952375;29;20059;-96
2021/03/28 15:27:47;;;;;;;0.55;0.40;;;13.80;99.90;;;;;;4916781;29;20043;-96
2021/03/28 15:30:43;;;;;;;0.40;0.30;;;13.80;99.90;;;;;;4939010;29;20040;-96
2021/03/28 15:33:12;;;;;;;1.35;0.60;;;13.70;99.90;;;;;;4935575;29;20046;-96
2021/03/28 15:36:02;;;;;;;1.70;0.68;;;13.60;99.90;;;;;;4929397;29;20191;-96
2021/03/28 15:39:06;;;;;;;1.10;0.57;;;13.60;99.90;;;;;;4926883;29;20047;-94
2021/03/28 15:42:17;;;;;;;0.70;0.40;;;13.50;99.90;;;;;;4941343;29;20064;-94
2021/03/28 15:45:08;;;;;;;0.57;0.30;;;13.50;99.90;;;;;;4940684;29;20071;-95
2021/03/28 15:48:11;;;;;;;0.25;0.20;;;13.40;99.90;;;;;;4932147;29;20077;-96
2021/03/28 15:51:01;;;;;;;0.38;0.20;;;13.30;99.90;;;;;;4931649;29;20028;-94
2021/03/28 15:53:53;;;;;;;0.38;0.38;;;13.30;99.90;;;;;;4928325;29;20031;-95
2021/03/28 15:56:40;;;;;;;0.50;0.40;;;13.20;99.90;;;;;;4929159;29;20047;-96
2021/03/28 15:59:15;;;;;;;0.30;0.30;;;13.20;99.90;;;;;;4927416;29;20035;-94
2021/03/28 16:01:58;;;;;;;0.60;0.30;;;13.20;99.90;;;;;;4923522;29;20031;-94
2021/03/28 16:04:52;;;;;;;0.70;0.32;;;13.20;99.90;;;;;;4922734;29;20134;-94
2021/03/28 16:08:09;;;;;;;0.63;0.20;;;13.20;99.90;;;;;;4921889;29;20090;-93
2021/03/28 16:10:41;;;;;;;0.63;0.32;;;13.20;99.90;;;;;;4845420;29;20026;-95
2021/03/28 16:13:33;;;;;;;0.85;0.30;;;13.20;99.90;;;;;;4842908;29;20022;-93
2021/03/28 16:16:31;;;;;;;1.55;0.17;;;13.20;99.90;;;;;;4837020;29;20038;-93
2021/03/28 16:19:09;;;;;;;0.50;0.30;;;13.10;99.90;;;;;;4846600;29;20037;-94
2021/03/28 16:21:40;;;;;;;0.68;0.20;;;13.10;99.90;;;;;;4826613;29;20106;-94
2021/03/28 16:24:17;;;;;;;0.52;0.17;;;13.10;99.90;;;;;;4843695;29;20059;-93
2021/03/28 16:26:54;;;;;;;0.80;0.28;;;13.10;99.90;;;;;;4835673;29;20030;-95
2021/03/28 16:29:44;;;;;;;0.30;0.30;;;13.10;99.90;;;;;;4841260;29;20098;-95
2021/03/28 16:32:16;;;;;;;1.35;0.25;;;13.00;99.90;;;;;;4842158;29;20071;-93
2021/03/28 16:34:47;;;;;;;0.20;0.20;;;13.00;99.90;;;;;;4842406;29;20053;-95